Time;durP1;ratioP1;P1;durP2;ratioP2;P2;SDS_P1;SDS_P2;PMS_P1;PMS_P2;Temp;Humidity;BMP_temperature;BMP_pressure;BME280_temperature;BME280_humidity;BME280_pressure;Samples;Min_cycle;Max_cycle;Signal;HPM_P1;HPM_P2
2023/10/11 00:01:19;;;;;;;0.10;0.10;;;;;;;23.41;57.40;101323.03;5088203;28;20127;-64
2023/10/11 00:03:54;;;;;;;0.10;0.10;;;;;;;23.23;57.21;101323.84;5051709;28;20048;-64
2023/10/11 00:06:20;;;;;;;0.03;0.03;;;;;;;23.02;57.95;101317.84;5034097;28;20028;-64
2023/10/11 00:08:45;;;;;;;0.10;0.10;;;;;;;23.08;58.15;101321.31;5052314;28;20025;-62
2023/10/11 00:11:18;;;;;;;0.10;0.10;;;;;;;23.82;56.00;101318.50;5033833;28;20504;-63
2023/10/11 00:13:44;;;;;;;0.08;0.08;;;;;;;23.74;56.85;101319.22;5071267;28;20032;-65
2023/10/11 00:16:10;;;;;;;0.10;0.10;;;;;;;23.07;58.91;101325.19;5071598;28;20044;-63
2023/10/11 00:18:41;;;;;;;0.10;0.10;;;;;;;22.60;60.66;101317.88;5071466;28;20161;-64
2023/10/11 00:21:15;;;;;;;0.10;0.10;;;;;;;23.45;57.73;101307.59;5072247;28;20460;-63
2023/10/11 00:23:51;;;;;;;0.10;0.10;;;;;;;22.86;60.51;101302.72;5072141;28;20047;-63
2023/10/11 00:26:18;;;;;;;0.10;0.10;;;;;;;24.04;55.70;101306.84;5071787;28;20040;-63
2023/10/11 00:28:44;;;;;;;0.10;0.10;;;;;;;23.20;59.03;101303.31;5053693;28;20037;-63
2023/10/11 00:31:19;;;;;;;0.10;0.10;;;;;;;24.24;55.58;101303.72;5071490;28;20055;-63
2023/10/11 00:33:46;;;;;;;0.10;0.10;;;;;;;24.25;54.81;101305.38;5071207;28;20527;-63
2023/10/11 00:36:13;;;;;;;0.10;0.10;;;;;;;23.59;57.11;101304.94;5071605;28;20032;-63
2023/10/11 00:38:49;;;;;;;0.00;0.00;;;;;;;23.69;56.61;101299.25;5071199;28;20044;-62
2023/10/11 00:41:17;;;;;;;0.10;0.10;;;;;;;23.21;58.59;101295.91;5071428;28;20029;-64
2023/10/11 00:43:49;;;;;;;0.10;0.10;;;;;;;22.82;60.17;101300.88;5071214;28;20567;-63
2023/10/11 00:46:20;;;;;;;0.00;0.00;;;;;;;22.69;61.37;101297.75;5071214;28;20037;-63
2023/10/11 00:48:56;;;;;;;0.10;0.10;;;;;;;23.68;57.47;101292.13;5070804;28;20075;-63
2023/10/11 00:51:26;;;;;;;0.10;0.10;;;;;;;23.33;58.63;101296.31;5070981;28;20060;-63
2023/10/11 00:53:52;;;;;;;0.10;0.10;;;;;;;23.24;59.49;101289.81;5071785;28;20024;-63
2023/10/11 00:56:20;;;;;;;0.10;0.10;;;;;;;23.08;60.32;101305.69;5076802;28;20032;-64
2023/10/11 00:58:45;;;;;;;0.10;0.10;;;;;;;22.72;61.70;101298.28;5076265;28;20059;-64
2023/10/11 01:01:11;;;;;;;0.10;0.10;;;;;;;22.49;62.97;101294.41;5070805;28;20048;-64
2023/10/11 01:03:37;;;;;;;0.10;0.10;;;;;;;22.85;61.54;101295.63;5070671;28;20111;-64
2023/10/11 01:06:04;;;;;;;0.20;0.20;;;;;;;22.69;61.92;101297.75;5070736;28;20021;-63
2023/10/11 01:08:38;;;;;;;0.05;0.05;;;;;;;21.99;63.94;101301.31;5070281;28;20082;-64
2023/10/11 01:11:14;;;;;;;0.10;0.10;;;;;;;22.48;61.96;101310.06;5070718;28;20048;-63
2023/10/11 01:13:41;;;;;;;0.10;0.10;;;;;;;22.43;63.44;101298.31;5070500;28;20032;-62
2023/10/11 01:16:10;;;;;;;0.10;0.10;;;;;;;23.28;60.23;101296.34;5070444;28;20036;-64
2023/10/11 01:18:38;;;;;;;0.10;0.10;;;;;;;22.43;62.29;101290.09;5070703;28;20048;-65
2023/10/11 01:21:04;;;;;;;0.10;0.10;;;;;;;22.92;61.12;101287.03;5070778;28;20024;-64
2023/10/11 01:23:29;;;;;;;0.10;0.10;;;;;;;22.19;63.26;101292.06;5070846;28;20028;-65
2023/10/11 01:25:55;;;;;;;0.10;0.10;;;;;;;22.60;61.97;101277.59;5070308;28;20043;-64
2023/10/11 01:28:21;;;;;;;0.10;0.10;;;;;;;22.51;62.23;101282.06;5070328;28;20086;-63
2023/10/11 01:30:47;;;;;;;0.10;0.10;;;;;;;22.73;60.92;101276.06;5070335;28;20035;-62
2023/10/11 01:33:16;;;;;;;0.10;0.10;;;;;;;22.75;60.86;101267.53;5070434;28;20021;-62
2023/10/11 01:35:42;;;;;;;0.10;0.10;;;;;;;22.66;61.32;101276.41;5070095;28;20132;-63
2023/10/11 01:38:08;;;;;;;0.10;0.10;;;;;;;22.32;62.87;101275.75;5051933;28;20415;-62
2023/10/11 01:40:33;;;;;;;0.10;0.10;;;;;;;22.40;62.03;101271.53;5070310;28;20039;-63
2023/10/11 01:42:59;;;;;;;0.10;0.10;;;;;;;23.44;59.12;101271.16;5070560;28;20550;-63
2023/10/11 01:45:25;;;;;;;0.10;0.10;;;;;;;22.53;62.24;101266.16;5070173;28;20055;-63
2023/10/11 01:47:56;;;;;;;0.10;0.10;;;;;;;22.92;61.11;101267.84;5070390;28;20480;-64
2023/10/11 01:50:22;;;;;;;0.10;0.10;;;;;;;22.70;61.23;101265.69;5070160;28;20429;-63
2023/10/11 01:52:48;;;;;;;0.10;0.10;;;;;;;22.51;62.48;101265.63;5070818;28;20182;-64
2023/10/11 01:55:17;;;;;;;0.10;0.10;;;;;;;22.64;61.35;101262.19;5070834;28;20036;-62
2023/10/11 01:57:45;;;;;;;0.10;0.10;;;;;;;22.76;60.53;101256.25;5069419;28;20045;-63
2023/10/11 02:00:14;;;;;;;0.10;0.10;;;;;;;23.09;59.69;101254.41;5070616;28;20503;-62
2023/10/11 02:02:55;;;;;;;0.20;0.20;;;;;;;23.05;60.31;101248.72;5069864;28;20048;-63
2023/10/11 02:05:24;;;;;;;0.10;0.10;;;;;;;22.69;61.12;101239.38;5069973;28;20381;-64
2023/10/11 02:07:50;;;;;;;0.20;0.20;;;;;;;22.50;61.56;101254.97;5069813;28;20036;-63
2023/10/11 02:10:25;;;;;;;0.10;0.10;;;;;;;23.06;59.51;101252.25;5069896;28;20035;-64
2023/10/11 02:12:51;;;;;;;0.10;0.10;;;;;;;22.72;60.69;101246.22;5070329;28;20064;-63
2023/10/11 02:15:28;;;;;;;0.10;0.10;;;;;;;22.99;60.09;101246.34;5070985;28;20464;-64
2023/10/11 02:17:57;;;;;;;0.10;0.10;;;;;;;22.72;60.62;101241.56;5069565;28;20075;-65
2023/10/11 02:20:22;;;;;;;0.10;0.10;;;;;;;23.54;57.95;101237.22;5070639;28;20063;-64
2023/10/11 02:22:52;;;;;;;0.10;0.10;;;;;;;23.36;58.04;101235.34;5070496;28;20028;-65
2023/10/11 02:25:19;;;;;;;0.10;0.10;;;;;;;22.92;60.09;101249.47;5070323;28;20059;-63
2023/10/11 02:27:50;;;;;;;0.03;0.03;;;;;;;23.84;56.66;101244.09;5070470;28;20101;-64
2023/10/11 02:30:26;;;;;;;0.10;0.10;;;;;;;23.76;56.03;101242.88;5070845;28;20024;-65
2023/10/11 02:32:53;;;;;;;0.10;0.10;;;;;;;22.57;60.36;101245.31;5070491;28;20044;-63
2023/10/11 02:35:19;;;;;;;0.10;0.10;;;;;;;22.86;58.91;101236.94;5070187;28;20094;-63
2023/10/11 02:37:46;;;;;;;0.10;0.10;;;;;;;22.83;59.26;101231.25;5070117;28;20044;-65
2023/10/11 02:40:16;;;;;;;0.20;0.20;;;;;;;22.74;59.90;101227.56;5052422;28;20667;-64
2023/10/11 02:42:46;;;;;;;0.00;0.00;;;;;;;22.67;59.64;101226.00;5070351;28;20119;-63
2023/10/11 02:45:13;;;;;;;0.10;0.10;;;;;;;22.97;58.29;101218.41;5070991;28;20021;-64
2023/10/11 02:47:40;;;;;;;0.10;0.10;;;;;;;22.88;58.97;101217.47;5069958;28;20041;-64
2023/10/11 02:50:07;;;;;;;0.10;0.10;;;;;;;22.82;59.40;101213.19;5085985;28;20047;-64
2023/10/11 02:52:36;;;;;;;0.10;0.10;;;;;;;22.70;59.18;101211.69;5069841;28;20048;-64
2023/10/11 02:55:16;;;;;;;0.10;0.10;;;;;;;22.33;60.32;101208.91;5070040;28;20060;-65
2023/10/11 02:57:42;;;;;;;0.10;0.10;;;;;;;22.51;59.67;101218.25;5051290;28;20080;-64
2023/10/11 03:00:21;;;;;;;0.10;0.10;;;;;;;23.12;57.87;101218.97;5052369;28;20033;-62
2023/10/11 03:02:56;;;;;;;0.10;0.10;;;;;;;22.28;60.31;101224.59;5070323;28;20100;-66
2023/10/11 03:05:28;;;;;;;0.10;0.10;;;;;;;22.53;59.66;101237.94;5070205;28;20036;-64
2023/10/11 03:08:19;;;;;;;0.10;0.10;;;;;;;22.39;60.33;101235.09;5069864;28;20032;-65
2023/10/11 03:10:53;;;;;;;0.10;0.10;;;;;;;22.89;58.73;101233.63;5069924;28;20036;-63
2023/10/11 03:14:05;;;;;;;0.10;0.10;;;;;;;23.13;57.63;101239.00;5069616;28;20043;-64
2023/10/11 03:16:11;;;;;;;0.10;0.10;;;;;;;22.40;60.13;101223.06;5062257;28;20044;-65
2023/10/11 03:18:39;;;;;;;0.15;0.15;;;;;;;22.15;61.21;101225.31;5069562;28;20032;-64
2023/10/11 03:21:33;;;;;;;0.10;0.10;;;;;;;23.07;58.21;101221.81;5070258;28;20039;-64
2023/10/11 03:24:04;;;;;;;0.10;0.10;;;;;;;22.21;61.40;101211.25;5069827;28;20040;-64
2023/10/11 03:28:57;;;;;;;0.15;0.15;;;;;;;23.11;57.75;101197.34;5070798;28;20036;-63
2023/10/11 03:31:28;;;;;;;0.10;0.10;;;;;;;22.16;61.42;101207.75;5073650;28;20043;-64
2023/10/11 03:33:56;;;;;;;0.10;0.10;;;;;;;22.70;59.50;101197.97;5073873;28;20029;-64
2023/10/11 03:36:29;;;;;;;0.10;0.10;;;;;;;21.72;63.26;101197.84;5073897;28;20032;-63
2023/10/11 03:38:54;;;;;;;0.10;0.10;;;;;;;22.75;59.51;101188.06;5074101;28;20028;-64
2023/10/11 03:41:28;;;;;;;0.00;0.00;;;;;;;22.39;60.89;101201.41;5073573;28;20037;-63
2023/10/11 03:44:09;;;;;;;0.10;0.10;;;;;;;22.63;60.28;101197.56;5073313;28;20044;-63
2023/10/11 03:46:38;;;;;;;0.10;0.10;;;;;;;22.53;60.65;101191.38;5089311;28;20043;-63
2023/10/11 03:49:35;;;;;;;0.10;0.10;;;;;;;21.91;62.83;101194.38;5073230;28;20036;-63
2023/10/11 03:51:58;;;;;;;0.10;0.10;;;;;;;21.05;65.67;101202.59;5073058;28;20033;-64
2023/10/11 03:54:24;;;;;;;0.20;0.20;;;;;;;21.07;65.44;101203.13;5073429;28;20033;-63
2023/10/11 03:56:55;;;;;;;0.10;0.10;;;;;;;22.40;61.57;101184.72;5073693;28;20029;-63
2023/10/11 03:59:25;;;;;;;0.20;0.20;;;;;;;22.29;61.77;101183.22;5073433;28;20093;-63
2023/10/11 04:01:52;;;;;;;0.10;0.10;;;;;;;21.92;62.96;101185.88;5063215;28;20086;-63
2023/10/11 04:04:20;;;;;;;0.10;0.10;;;;;;;22.28;61.46;101184.34;5052817;28;20063;-64
2023/10/11 04:06:51;;;;;;;0.10;0.10;;;;;;;22.38;61.39;101186.13;5056594;28;20049;-62
2023/10/11 04:09:30;;;;;;;0.10;0.10;;;;;;;22.36;62.01;101191.91;5072725;28;20086;-63
2023/10/11 04:11:58;;;;;;;0.10;0.10;;;;;;;21.90;63.28;101190.81;5060773;28;20036;-63
2023/10/11 04:14:32;;;;;;;0.10;0.10;;;;;;;22.71;60.33;101187.84;5054250;28;20404;-64
2023/10/11 04:17:00;;;;;;;0.10;0.10;;;;;;;22.82;60.09;101180.28;5072700;28;20045;-63
2023/10/11 04:19:26;;;;;;;0.10;0.10;;;;;;;22.89;59.93;101176.06;5072258;28;20080;-64
2023/10/11 04:24:19;;;;;;;0.10;0.10;;;;;;;22.33;62.08;101176.03;5073738;28;20020;-65
2023/10/11 04:26:56;;;;;;;0.10;0.10;;;;;;;22.52;61.26;101174.13;5072962;28;20127;-64
2023/10/11 04:29:25;;;;;;;0.10;0.10;;;;;;;22.42;62.10;101170.72;5072349;28;20032;-62
2023/10/11 04:32:09;;;;;;;0.20;0.20;;;;;;;22.07;62.50;101182.97;5054542;28;20143;-62
2023/10/11 04:34:38;;;;;;;0.10;0.10;;;;;;;22.20;62.34;101184.16;5072446;28;20032;-62
2023/10/11 04:37:16;;;;;;;0.10;0.10;;;;;;;22.30;62.56;101186.78;5072522;28;20499;-62
2023/10/11 04:39:50;;;;;;;0.10;0.10;;;;;;;22.56;61.75;101188.06;5071963;28;20040;-64
2023/10/11 04:42:19;;;;;;;0.10;0.10;;;;;;;22.18;64.11;101203.63;5085779;28;20024;-64
2023/10/11 04:44:47;;;;;;;0.10;0.10;;;;;;;22.47;62.42;101192.53;5074503;28;20074;-63
2023/10/11 04:47:16;;;;;;;0.10;0.10;;;;;;;22.69;61.98;101192.81;5069002;28;20041;-64
2023/10/11 04:49:44;;;;;;;0.10;0.10;;;;;;;22.07;63.31;101191.19;5071838;28;20044;-63
2023/10/11 04:52:34;;;;;;;0.10;0.10;;;;;;;22.38;62.83;101178.72;5071425;28;20123;-63
2023/10/11 04:55:09;;;;;;;0.10;0.10;;;;;;;22.35;63.32;101183.94;5072102;28;20085;-64
2023/10/11 04:58:03;;;;;;;0.10;0.10;;;;;;;22.67;61.66;101181.34;5071352;28;20036;-65
2023/10/11 05:00:31;;;;;;;0.10;0.10;;;;;;;22.57;62.44;101174.09;5071590;28;20032;-65
2023/10/11 05:02:58;;;;;;;0.10;0.10;;;;;;;22.88;61.37;101170.88;5064225;28;20090;-63
2023/10/11 05:05:24;;;;;;;0.10;0.10;;;;;;;22.41;62.17;101164.41;5071844;28;20120;-64
2023/10/11 05:08:01;;;;;;;0.10;0.10;;;;;;;22.86;61.12;101162.94;5073602;28;20029;-63
2023/10/11 05:10:30;;;;;;;0.10;0.10;;;;;;;22.20;63.01;101165.00;5071249;28;20474;-63
2023/10/11 05:13:05;;;;;;;0.10;0.10;;;;;;;22.38;63.18;101173.25;5071606;28;20037;-63
2023/10/11 05:15:42;;;;;;;0.20;0.20;;;;;;;21.99;64.58;101169.13;5071354;28;20387;-65
2023/10/11 05:18:08;;;;;;;0.10;0.10;;;;;;;22.05;64.03;101178.91;5072061;28;20063;-64
2023/10/11 05:23:11;;;;;;;0.10;0.10;;;;;;;22.08;64.47;101184.59;5074907;28;20396;-63
2023/10/11 05:25:52;;;;;;;0.10;0.10;;;;;;;22.97;61.13;101185.53;5075213;28;20032;-64
2023/10/11 05:28:27;;;;;;;0.10;0.10;;;;;;;22.90;60.61;101185.91;5076676;28;20036;-64
2023/10/11 05:36:48;;;;;;;0.10;0.10;;;;;;;22.42;63.20;101195.38;5080792;28;20078;-64
2023/10/11 05:53:15;;;;;;;0.10;0.10;;;;;;;22.11;64.85;101177.72;5007823;28;20037;-63
2023/10/11 05:55:40;;;;;;;0.10;0.10;;;;;;;21.46;67.66;101188.25;5007422;28;20115;-63
2023/10/11 05:58:07;;;;;;;0.08;0.08;;;;;;;22.26;64.59;101194.75;5007963;28;20513;-64
2023/10/11 06:00:38;;;;;;;0.10;0.10;;;;;;;22.32;64.67;101199.06;5007260;28;20104;-64
2023/10/11 06:03:04;;;;;;;0.10;0.10;;;;;;;21.99;64.80;101201.97;5008663;28;20033;-64
2023/10/11 06:05:39;;;;;;;0.10;0.10;;;;;;;22.08;65.27;101213.88;5008134;28;20061;-63
2023/10/11 06:08:06;;;;;;;0.03;0.03;;;;;;;22.84;63.03;101219.97;4991482;28;20041;-64
2023/10/11 06:10:43;;;;;;;0.10;0.10;;;;;;;22.30;64.19;101223.19;5007669;28;20065;-63
2023/10/11 06:13:15;;;;;;;0.20;0.20;;;;;;;22.85;63.01;101229.84;5008175;28;20505;-65
2023/10/11 06:15:58;;;;;;;0.17;0.17;;;;;;;22.98;62.77;101226.34;5008104;28;20042;-63
2023/10/11 06:18:55;;;;;;;0.10;0.10;;;;;;;23.01;62.27;101223.00;5007940;28;20046;-65
2023/10/11 06:21:33;;;;;;;0.10;0.10;;;;;;;22.73;64.16;101201.25;5004265;28;20034;-64
2023/10/11 06:24:04;;;;;;;0.10;0.10;;;;;;;22.47;64.88;101198.84;5017012;28;20045;-64
2023/10/11 06:26:52;;;;;;;0.10;0.10;;;;;;;22.07;66.89;101206.78;5050497;28;20021;-63
2023/10/11 06:29:23;;;;;;;0.10;0.10;;;;;;;22.14;66.96;101212.72;5066645;28;20036;-64
2023/10/11 06:31:49;;;;;;;0.13;0.13;;;;;;;21.66;68.31;101214.63;5070380;28;20416;-65
2023/10/11 06:34:34;;;;;;;0.10;0.10;;;;;;;21.95;67.04;101218.16;5070106;28;20056;-63
2023/10/11 06:37:00;;;;;;;0.10;0.10;;;;;;;22.64;64.37;101209.34;5070154;28;20044;-64
2023/10/11 06:44:57;;;;;;;0.10;0.10;;;;;;;21.96;67.97;101211.56;5070165;28;20044;-63
2023/10/11 06:47:24;;;;;;;0.10;0.10;;;;;;;22.43;66.29;101210.69;5069997;28;20051;-63
2023/10/11 06:49:54;;;;;;;0.10;0.10;;;;;;;22.00;67.86;101218.06;5069889;28;20071;-64
2023/10/11 06:52:25;;;;;;;0.10;0.10;;;;;;;22.26;66.34;101204.91;5070016;28;20032;-63
2023/10/11 06:55:07;;;;;;;;;;;;;;;22.31;66.43;101210.31;5070569;28;20033;-63
2023/10/11 06:57:38;;;;;;;0.10;0.10;;;;;;;22.43;66.94;101218.91;5069637;28;20485;-62
2023/10/11 07:00:12;;;;;;;0.20;0.20;;;;;;;22.28;67.21;101216.38;5070693;28;20063;-64
2023/10/11 07:02:38;;;;;;;0.10;0.10;;;;;;;22.55;66.02;101214.63;5069843;28;20123;-64
2023/10/11 07:05:08;;;;;;;0.10;0.10;;;;;;;22.14;68.54;101215.44;5069165;28;20033;-64
2023/10/11 07:07:34;;;;;;;0.10;0.10;;;;;;;22.79;65.68;101211.03;5069821;28;20060;-63
2023/10/11 07:10:03;;;;;;;0.10;0.10;;;;;;;22.80;66.14;101213.47;5069734;28;20082;-63
2023/10/11 07:12:28;;;;;;;0.10;0.10;;;;;;;23.32;63.88;101213.19;5069916;28;20021;-63
2023/10/11 07:14:57;;;;;;;0.08;0.08;;;;;;;22.92;65.88;101213.03;5070289;28;20071;-63
2023/10/11 07:17:28;;;;;;;0.10;0.10;;;;;;;23.21;64.49;101197.19;5049502;28;20076;-65
2023/10/11 07:19:57;;;;;;;0.10;0.10;;;;;;;22.64;67.53;101223.81;5049651;28;20065;-64
2023/10/11 07:22:26;;;;;;;0.10;0.10;;;;;;;22.97;65.80;101227.47;5049812;28;20090;-64
2023/10/11 07:24:55;;;;;;;0.10;0.10;;;;;;;22.36;67.89;101222.03;5049855;28;20174;-63
2023/10/11 07:27:37;;;;;;;0.08;0.08;;;;;;;22.79;66.90;101228.28;5049787;28;20020;-65
2023/10/11 07:30:06;;;;;;;0.10;0.10;;;;;;;22.63;67.91;101224.13;5061174;28;20020;-62
2023/10/11 07:32:36;;;;;;;0.10;0.10;;;;;;;22.66;68.38;101218.88;5079324;28;20036;-63
2023/10/11 07:35:05;;;;;;;0.10;0.10;;;;;;;22.31;68.68;101224.00;5069547;28;20168;-65
2023/10/11 07:37:31;;;;;;;0.10;0.10;;;;;;;22.04;70.36;101216.38;5051436;28;20040;-63
2023/10/11 07:40:00;;;;;;;0.10;0.10;;;;;;;22.28;69.17;101214.44;5069563;28;20090;-64
2023/10/11 07:42:37;;;;;;;0.10;0.10;;;;;;;22.98;66.02;101215.38;5069456;28;20498;-64
2023/10/11 07:45:07;;;;;;;0.10;0.10;;;;;;;22.96;67.71;101214.06;5069980;28;20035;-64
2023/10/11 07:47:34;;;;;;;;;;;;;;;22.98;67.35;101222.78;5069909;28;20064;-63
2023/10/11 07:50:00;;;;;;;0.10;0.10;;;;;;;22.15;70.65;101231.56;5069383;28;19916;-65
2023/10/11 07:52:25;;;;;;;0.10;0.10;;;;;;;23.12;66.47;101238.19;5069500;28;20036;-63
2023/10/11 07:54:52;;;;;;;0.08;0.08;;;;;;;23.05;67.01;101220.47;5069392;28;20037;-63
2023/10/11 07:57:19;;;;;;;0.10;0.10;;;;;;;23.27;66.41;101228.91;5049360;28;20105;-63
2023/10/11 07:59:47;;;;;;;0.10;0.10;;;;;;;22.37;69.68;101220.06;5049400;28;20041;-63
2023/10/11 08:02:29;;;;;;;0.10;0.10;;;;;;;22.62;68.55;101234.28;5049255;28;20130;-63
2023/10/11 08:04:57;;;;;;;0.10;0.10;;;;;;;22.66;68.72;101231.78;5049160;28;20631;-63
2023/10/11 08:07:23;;;;;;;0.10;0.10;;;;;;;22.59;69.17;101223.09;5049353;28;20041;-64
2023/10/11 08:09:52;;;;;;;0.10;0.10;;;;;;;22.91;67.55;101223.16;5049055;28;20091;-62
2023/10/11 08:12:21;;;;;;;0.10;0.10;;;;;;;22.72;69.25;101216.91;5049522;28;20017;-64
2023/10/11 08:14:47;;;;;;;0.10;0.10;;;;;;;22.95;67.81;101226.13;5050244;28;20037;-65
2023/10/11 08:17:16;;;;;;;0.10;0.10;;;;;;;22.85;68.58;101207.91;5058906;28;20053;-65
2023/10/11 08:19:44;;;;;;;0.00;0.00;;;;;;;22.59;68.99;101218.44;5055205;28;20054;-65
2023/10/11 08:22:16;;;;;;;0.03;0.03;;;;;;;22.59;70.19;101201.19;5062882;28;20063;-64
2023/10/11 08:24:46;;;;;;;0.10;0.10;;;;;;;22.00;71.82;101209.88;5060073;28;20038;-63
2023/10/11 08:27:12;;;;;;;0.10;0.10;;;;;;;22.59;69.85;101204.75;5063322;28;20013;-64
2023/10/11 08:29:38;;;;;;;0.10;0.10;;;;;;;22.80;68.77;101207.97;5072976;28;20651;-62
2023/10/11 08:32:06;;;;;;;0.05;0.05;;;;;;;23.26;67.31;101214.38;5051811;28;20036;-63
2023/10/11 08:34:32;;;;;;;0.08;0.08;;;;;;;23.10;67.93;101217.66;5063694;28;20055;-65
2023/10/11 08:36:58;;;;;;;0.10;0.10;;;;;;;23.02;68.30;101230.13;5052225;28;20127;-64
2023/10/11 08:39:35;;;;;;;0.00;0.00;;;;;;;22.63;69.79;101233.16;5062179;28;20107;-64
2023/10/11 08:42:09;;;;;;;0.10;0.10;;;;;;;22.43;70.24;101238.06;5058917;28;20035;-64
2023/10/11 08:44:34;;;;;;;0.00;0.00;;;;;;;22.85;68.98;101232.59;5060758;28;20493;-64
2023/10/11 08:47:03;;;;;;;0.10;0.10;;;;;;;22.96;69.37;101236.00;5062496;28;20204;-64
2023/10/11 08:49:29;;;;;;;0.10;0.10;;;;;;;22.65;70.03;101232.88;5062339;28;20131;-64
2023/10/11 08:52:00;;;;;;;0.10;0.10;;;;;;;22.44;71.89;101245.19;5062725;28;20163;-63
2023/10/11 08:54:27;;;;;;;0.00;0.00;;;;;;;22.74;70.86;101235.78;5061434;28;20032;-64
2023/10/11 08:56:54;;;;;;;0.10;0.10;;;;;;;22.90;70.64;101240.72;5063097;28;20035;-64
2023/10/11 08:59:25;;;;;;;0.00;0.00;;;;;;;23.30;68.61;101237.34;5036266;28;20037;-63
2023/10/11 09:01:53;;;;;;;0.00;0.00;;;;;;;23.36;68.21;101243.56;5032249;28;20041;-63
2023/10/11 09:04:19;;;;;;;0.10;0.10;;;;;;;23.27;69.31;101239.88;5051703;28;20099;-64
2023/10/11 09:06:45;;;;;;;0.10;0.10;;;;;;;23.11;70.49;101244.78;5051382;28;20049;-63
2023/10/11 09:09:40;;;;;;;0.10;0.10;;;;;;;22.97;71.25;101243.09;5052211;28;20550;-64
2023/10/11 09:12:24;;;;;;;0.10;0.10;;;;;;;23.03;70.77;101239.16;5082511;28;20085;-64
2023/10/11 09:14:58;;;;;;;0.10;0.10;;;;;;;22.96;70.99;101238.75;5081317;28;20063;-63
2023/10/11 09:17:25;;;;;;;0.10;0.10;;;;;;;22.64;73.08;101223.81;5079239;28;20109;-64
2023/10/11 09:19:53;;;;;;;0.10;0.10;;;;;;;23.73;68.48;101239.88;5082388;28;20117;-65
2023/10/11 09:22:18;;;;;;;0.10;0.10;;;;;;;22.80;72.03;101246.34;5090020;28;20113;-63
2023/10/11 09:24:44;;;;;;;0.10;0.10;;;;;;;23.83;67.93;101243.28;5081136;28;20037;-63
2023/10/11 09:29:43;;;;;;;0.10;0.10;;;;;;;23.44;70.03;101240.97;5078560;28;20037;-65
2023/10/11 09:32:09;;;;;;;0.10;0.10;;;;;;;22.86;71.32;101258.88;5080173;28;20032;-67
2023/10/11 09:34:41;;;;;;;0.00;0.00;;;;;;;22.81;71.76;101263.59;5088937;28;20028;-66
2023/10/11 09:37:07;;;;;;;0.00;0.00;;;;;;;23.20;70.35;101262.19;5072706;28;20484;-64
2023/10/11 09:39:33;;;;;;;0.03;0.03;;;;;;;23.39;70.64;101268.47;5071040;28;20051;-63
2023/10/11 09:42:04;;;;;;;0.10;0.10;;;;;;;23.39;70.63;101276.69;5053684;28;20028;-63
2023/10/11 09:44:37;;;;;;;0.10;0.10;;;;;;;23.33;71.78;101288.88;5071069;28;20039;-66
2023/10/11 09:47:05;;;;;;;0.00;0.00;;;;;;;23.92;68.64;101284.56;5070959;28;20055;-64
2023/10/11 09:49:41;;;;;;;0.10;0.10;;;;;;;23.83;70.05;101291.84;5070943;28;20043;-64
2023/10/11 09:52:07;;;;;;;0.10;0.10;;;;;;;23.03;72.72;101294.81;5070885;28;20044;-63
2023/10/11 09:54:34;;;;;;;0.10;0.10;;;;;;;23.10;72.78;101297.97;5070771;28;20033;-64
2023/10/11 09:57:13;;;;;;;0.00;0.00;;;;;;;22.97;73.67;101306.97;5071013;28;20464;-65
2023/10/11 10:00:02;;;;;;;0.10;0.10;;;;;;;23.04;73.76;101306.56;5050703;28;20053;-64
2023/10/11 10:02:38;;;;;;;0.10;0.10;;;;;;;23.42;72.82;101317.28;5050775;28;20037;-65
2023/10/11 10:05:05;;;;;;;0.00;0.00;;;;;;;23.72;71.03;101313.19;5050792;28;20037;-65
2023/10/11 10:07:42;;;;;;;0.10;0.10;;;;;;;22.45;76.15;101312.53;5050478;28;20036;-63
2023/10/11 10:10:11;;;;;;;0.10;0.10;;;;;;;22.88;74.08;101310.66;5050826;28;20087;-65
2023/10/11 10:12:54;;;;;;;0.05;0.05;;;;;;;23.36;72.01;101317.63;5061017;28;20349;-65
2023/10/11 10:15:23;;;;;;;0.10;0.10;;;;;;;23.81;70.02;101307.81;5070512;28;20032;-63
2023/10/11 10:17:57;;;;;;;0.08;0.08;;;;;;;23.42;72.10;101300.00;5070721;28;20045;-64
2023/10/11 10:20:41;;;;;;;0.00;0.00;;;;;;;24.45;68.85;101313.22;5086338;28;20109;-64
2023/10/11 10:23:16;;;;;;;0.00;0.00;;;;;;;23.38;71.95;101313.50;5070541;28;20377;-64
2023/10/11 10:25:48;;;;;;;0.10;0.10;;;;;;;24.39;67.73;101304.25;5070421;28;20043;-64
2023/10/11 10:28:34;;;;;;;0.10;0.10;;;;;;;23.75;69.36;101309.84;5070169;28;20036;-62
2023/10/11 10:31:24;;;;;;;0.10;0.10;;;;;;;23.99;68.30;101287.72;5080829;28;20131;-64
2023/10/11 10:34:04;;;;;;;0.10;0.10;;;;;;;24.04;68.38;101299.44;5090273;28;20467;-64
2023/10/11 10:36:31;;;;;;;;;;;;;;;24.09;68.65;101306.78;5050732;28;20112;-65
2023/10/11 10:41:41;;;;;;;0.00;0.00;;;;;;;24.93;64.36;101294.31;5050292;28;20393;-64
2023/10/11 10:44:12;;;;;;;0.00;0.00;;;;;;;25.00;64.77;101300.22;5050252;28;20086;-64
2023/10/11 10:46:49;;;;;;;0.00;0.00;;;;;;;25.17;63.54;101298.44;5050080;28;20041;-64
2023/10/11 10:49:18;;;;;;;0.00;0.00;;;;;;;25.03;63.52;101299.59;5031987;28;20041;-64
2023/10/11 10:51:53;;;;;;;0.05;0.05;;;;;;;24.25;65.85;101300.66;5050123;28;20063;-63
2023/10/11 10:54:22;;;;;;;0.00;0.00;;;;;;;24.80;64.75;101293.25;5050091;28;20040;-63
2023/10/11 10:56:53;;;;;;;0.00;0.00;;;;;;;24.57;65.11;101280.50;5050215;28;20032;-63
2023/10/11 10:59:22;;;;;;;0.00;0.00;;;;;;;24.89;63.20;101288.63;5048661;28;20036;-63
2023/10/11 11:01:49;;;;;;;0.00;0.00;;;;;;;24.89;64.07;101272.13;5049979;28;20045;-64
2023/10/11 11:04:16;;;;;;;0.03;0.03;;;;;;;25.82;60.15;101279.47;5049729;28;20119;-64
2023/10/11 11:06:46;;;;;;;0.00;0.00;;;;;;;24.97;62.67;101274.16;5031153;28;20037;-63
2023/10/11 11:09:15;;;;;;;0.00;0.00;;;;;;;25.58;61.85;101258.91;5050336;28;20013;-63
2023/10/11 11:11:41;;;;;;;0.00;0.00;;;;;;;25.19;62.19;101251.34;5049793;28;20029;-63
2023/10/11 11:14:15;;;;;;;0.00;0.00;;;;;;;25.24;61.66;101237.44;5049857;28;20044;-63
2023/10/11 11:16:44;;;;;;;0.00;0.00;;;;;;;25.75;59.72;101228.75;5053754;28;20029;-64
2023/10/11 11:19:16;;;;;;;0.00;0.00;;;;;;;25.63;60.71;101239.53;5049840;28;20052;-64
2023/10/11 11:21:45;;;;;;;0.00;0.00;;;;;;;25.99;59.92;101240.16;5049493;28;20033;-63
2023/10/11 11:24:34;;;;;;;0.00;0.00;;;;;;;25.32;61.41;101242.19;5050274;28;20069;-64
2023/10/11 11:27:01;;;;;;;0.00;0.00;;;;;;;25.46;60.10;101248.47;5029920;28;20769;-62
2023/10/11 11:29:33;;;;;;;0.00;0.00;;;;;;;25.06;62.08;101232.97;5047286;28;20410;-64
2023/10/11 11:32:14;;;;;;;0.00;0.00;;;;;;;26.24;58.47;101244.97;5031551;28;20064;-65
2023/10/11 11:35:00;;;;;;;0.00;0.00;;;;;;;25.45;61.02;101244.13;5049710;28;20068;-64
2023/10/11 11:37:29;;;;;;;0.00;0.00;;;;;;;25.87;59.44;101242.69;5049312;28;20493;-63
2023/10/11 11:40:17;;;;;;;0.08;0.08;;;;;;;25.51;60.30;101250.31;5049468;28;20045;-64
2023/10/11 11:42:47;;;;;;;0.00;0.00;;;;;;;25.42;60.94;101255.75;5049347;28;20044;-65
2023/10/11 11:45:26;;;;;;;0.00;0.00;;;;;;;25.34;60.77;101245.47;5050027;28;20025;-65
2023/10/11 11:47:57;;;;;;;0.00;0.00;;;;;;;25.13;61.51;101245.16;5049422;28;20103;-66
2023/10/11 11:50:24;;;;;;;0.00;0.00;;;;;;;24.79;62.51;101246.78;5050795;28;20044;-64
2023/10/11 11:52:50;;;;;;;0.00;0.00;;;;;;;25.17;62.41;101232.41;5053175;28;20037;-64
2023/10/11 11:55:16;;;;;;;0.00;0.00;;;;;;;25.81;59.91;101232.94;5034726;28;20037;-61
2023/10/11 11:57:42;;;;;;;0.00;0.00;;;;;;;25.38;61.36;101237.38;5058982;28;20561;-63
2023/10/11 12:00:38;;;;;;;0.00;0.00;;;;;;;25.62;60.60;101235.94;5073885;28;20389;-63
2023/10/11 12:03:04;;;;;;;0.00;0.00;;;;;;;25.68;60.38;101234.69;5073592;28;20048;-63
2023/10/11 12:05:37;;;;;;;0.00;0.00;;;;;;;26.48;58.08;101228.81;5073179;28;20114;-66
2023/10/11 12:08:04;;;;;;;0.00;0.00;;;;;;;25.88;60.10;101234.16;5073070;28;20033;-65
2023/10/11 12:10:32;;;;;;;0.00;0.00;;;;;;;26.36;58.19;101234.16;5073164;28;20037;-64
2023/10/11 12:13:05;;;;;;;0.00;0.00;;;;;;;26.91;57.15;101235.22;5078846;28;20044;-63
2023/10/11 12:15:34;;;;;;;0.00;0.00;;;;;;;25.78;59.92;101236.34;5072617;28;20044;-63
2023/10/11 12:17:59;;;;;;;0.00;0.00;;;;;;;25.74;59.99;101238.13;5073228;28;20040;-64
2023/10/11 12:20:34;;;;;;;0.00;0.00;;;;;;;26.46;57.66;101236.59;5072887;28;20047;-63
2023/10/11 12:23:12;;;;;;;0.00;0.00;;;;;;;26.38;58.36;101236.59;5072914;28;20075;-63